sensor_id;sensor_type;location;lat;lon;timestamp;pressure;altitude;pressure_sealevel;temperature;humidity
12077;BME280;12420;42.676;23.262;2022-07-06T00:00:21;94569.44;;;21.20;100.00
12077;BME280;12420;42.676;23.262;2022-07-06T00:02:47;94564.84;;;21.25;100.00
12077;BME280;12420;42.676;23.262;2022-07-06T00:05:14;94564.97;;;21.27;100.00
12077;BME280;12420;42.676;23.262;2022-07-06T00:07:42;94568.38;;;21.25;100.00
12077;BME280;12420;42.676;23.262;2022-07-06T00:10:09;94578.09;;;21.03;100.00
12077;BME280;12420;42.676;23.262;2022-07-06T00:12:36;94574.38;;;21.10;100.00
12077;BME280;12420;42.676;23.262;2022-07-06T00:15:03;94584.28;;;21.11;100.00
12077;BME280;12420;42.676;23.262;2022-07-06T00:17:30;94582.72;;;20.98;100.00
12077;BME280;12420;42.676;23.262;2022-07-06T00:19:57;94586.16;;;20.97;100.00
12077;BME280;12420;42.676;23.262;2022-07-06T00:22:24;94592.94;;;20.94;100.00
12077;BME280;12420;42.676;23.262;2022-07-06T00:24:52;94589.44;;;20.84;100.00
12077;BME280;12420;42.676;23.262;2022-07-06T00:27:19;94585.09;;;20.42;100.00
12077;BME280;12420;42.676;23.262;2022-07-06T00:29:46;94596.03;;;20.37;100.00
12077;BME280;12420;42.676;23.262;2022-07-06T00:32:13;94606.38;;;20.35;100.00
12077;BME280;12420;42.676;23.262;2022-07-06T00:34:40;94611.59;;;20.29;100.00
12077;BME280;12420;42.676;23.262;2022-07-06T00:37:07;94614.09;;;20.34;100.00
12077;BME280;12420;42.676;23.262;2022-07-06T00:39:34;94605.66;;;20.25;100.00
12077;BME280;12420;42.676;23.262;2022-07-06T00:42:03;94595.91;;;20.16;100.00
12077;BME280;12420;42.676;23.262;2022-07-06T00:44:29;94605.81;;;20.17;100.00
12077;BME280;12420;42.676;23.262;2022-07-06T00:46:58;94605.97;;;20.19;100.00
12077;BME280;12420;42.676;23.262;2022-07-06T00:49:27;94596.94;;;20.30;100.00
12077;BME280;12420;42.676;23.262;2022-07-06T00:52:11;94574.16;;;20.07;100.00
12077;BME280;12420;42.676;23.262;2022-07-06T00:54:39;94593.53;;;20.22;100.00
12077;BME280;12420;42.676;23.262;2022-07-06T00:57:09;94592.22;;;20.23;100.00
12077;BME280;12420;42.676;23.262;2022-07-06T00:59:36;94576.34;;;20.37;100.00
12077;BME280;12420;42.676;23.262;2022-07-06T01:02:05;94574.88;;;20.46;100.00
12077;BME280;12420;42.676;23.262;2022-07-06T01:04:32;94558.72;;;20.47;100.00
12077;BME280;12420;42.676;23.262;2022-07-06T01:06:59;94550.44;;;20.49;100.00
12077;BME280;12420;42.676;23.262;2022-07-06T01:09:26;94554.16;;;20.51;100.00
12077;BME280;12420;42.676;23.262;2022-07-06T01:11:54;94555.03;;;20.54;100.00
12077;BME280;12420;42.676;23.262;2022-07-06T01:14:22;94553.56;;;20.43;100.00
12077;BME280;12420;42.676;23.262;2022-07-06T01:16:49;94560.09;;;20.46;100.00
12077;BME280;12420;42.676;23.262;2022-07-06T01:19:16;94552.66;;;20.50;100.00
12077;BME280;12420;42.676;23.262;2022-07-06T01:21:44;94551.78;;;20.57;100.00
12077;BME280;12420;42.676;23.262;2022-07-06T01:24:11;94560.03;;;20.65;100.00
12077;BME280;12420;42.676;23.262;2022-07-06T01:26:38;94561.22;;;20.62;100.00
12077;BME280;12420;42.676;23.262;2022-07-06T01:29:05;94559.31;;;20.65;100.00
12077;BME280;12420;42.676;23.262;2022-07-06T01:31:31;94555.44;;;20.70;100.00
12077;BME280;12420;42.676;23.262;2022-07-06T01:33:58;94537.28;;;20.51;100.00
12077;BME280;12420;42.676;23.262;2022-07-06T01:36:25;94536.72;;;20.33;100.00
12077;BME280;12420;42.676;23.262;2022-07-06T01:38:54;94561.09;;;20.50;100.00
12077;BME280;12420;42.676;23.262;2022-07-06T01:41:23;94567.34;;;20.29;100.00
12077;BME280;12420;42.676;23.262;2022-07-06T01:43:50;94552.25;;;20.34;100.00
12077;BME280;12420;42.676;23.262;2022-07-06T01:46:17;94556.25;;;20.31;100.00
12077;BME280;12420;42.676;23.262;2022-07-06T01:48:44;94555.84;;;20.25;100.00
12077;BME280;12420;42.676;23.262;2022-07-06T01:51:11;94557.75;;;20.23;100.00
12077;BME280;12420;42.676;23.262;2022-07-06T01:53:38;94531.13;;;20.04;100.00
12077;BME280;12420;42.676;23.262;2022-07-06T01:56:09;94560.09;;;20.26;100.00
12077;BME280;12420;42.676;23.262;2022-07-06T01:58:36;94570.16;;;20.39;100.00
12077;BME280;12420;42.676;23.262;2022-07-06T02:01:07;94565.69;;;20.46;100.00
12077;BME280;12420;42.676;23.262;2022-07-06T02:03:34;94563.16;;;20.50;100.00
12077;BME280;12420;42.676;23.262;2022-07-06T02:06:01;94559.63;;;20.59;100.00
12077;BME280;12420;42.676;23.262;2022-07-06T02:08:28;94561.97;;;20.63;100.00
12077;BME280;12420;42.676;23.262;2022-07-06T02:10:56;94571.56;;;20.69;100.00
12077;BME280;12420;42.676;23.262;2022-07-06T02:13:25;94567.72;;;20.74;100.00
12077;BME280;12420;42.676;23.262;2022-07-06T02:15:52;94568.44;;;20.75;100.00
12077;BME280;12420;42.676;23.262;2022-07-06T02:18:19;94569.19;;;20.75;100.00
12077;BME280;12420;42.676;23.262;2022-07-06T02:20:46;94567.72;;;20.74;100.00
12077;BME280;12420;42.676;23.262;2022-07-06T02:23:13;94523.53;;;20.46;100.00
12077;BME280;12420;42.676;23.262;2022-07-06T02:25:40;94567.41;;;20.80;100.00
12077;BME280;12420;42.676;23.262;2022-07-06T02:28:07;94565.31;;;20.80;100.00
12077;BME280;12420;42.676;23.262;2022-07-06T02:30:35;94569.47;;;20.79;100.00
12077;BME280;12420;42.676;23.262;2022-07-06T02:33:02;94565.03;;;20.76;100.00
12077;BME280;12420;42.676;23.262;2022-07-06T02:35:29;94560.31;;;20.79;100.00
12077;BME280;12420;42.676;23.262;2022-07-06T02:37:56;94560.75;;;20.75;100.00
12077;BME280;12420;42.676;23.262;2022-07-06T02:40:22;94558.56;;;20.64;100.00
12077;BME280;12420;42.676;23.262;2022-07-06T02:42:49;94550.13;;;20.64;100.00
12077;BME280;12420;42.676;23.262;2022-07-06T02:45:16;94555.59;;;20.62;100.00
12077;BME280;12420;42.676;23.262;2022-07-06T02:47:44;94553.09;;;20.47;100.00
12077;BME280;12420;42.676;23.262;2022-07-06T02:50:11;94553.69;;;20.55;100.00
12077;BME280;12420;42.676;23.262;2022-07-06T02:52:40;94555.31;;;20.58;100.00
12077;BME280;12420;42.676;23.262;2022-07-06T02:55:07;94563.31;;;20.62;100.00
12077;BME280;12420;42.676;23.262;2022-07-06T02:57:34;94562.72;;;20.53;100.00
12077;BME280;12420;42.676;23.262;2022-07-06T03:00:00;94556.97;;;20.61;100.00
12077;BME280;12420;42.676;23.262;2022-07-06T03:02:27;94561.38;;;20.64;100.00
12077;BME280;12420;42.676;23.262;2022-07-06T03:04:55;94563.13;;;20.69;100.00
12077;BME280;12420;42.676;23.262;2022-07-06T03:07:22;94567.97;;;20.78;100.00
12077;BME280;12420;42.676;23.262;2022-07-06T03:09:49;94554.94;;;20.83;100.00
12077;BME280;12420;42.676;23.262;2022-07-06T03:12:16;94568.13;;;20.80;100.00
12077;BME280;12420;42.676;23.262;2022-07-06T03:14:43;94557.97;;;20.66;100.00
12077;BME280;12420;42.676;23.262;2022-07-06T03:17:09;94574.59;;;20.93;100.00
12077;BME280;12420;42.676;23.262;2022-07-06T03:19:36;94577.41;;;20.93;100.00
12077;BME280;12420;42.676;23.262;2022-07-06T03:22:05;94573.41;;;20.96;100.00
12077;BME280;12420;42.676;23.262;2022-07-06T03:24:32;94581.25;;;20.97;100.00
12077;BME280;12420;42.676;23.262;2022-07-06T03:26:58;94584.22;;;20.99;100.00
12077;BME280;12420;42.676;23.262;2022-07-06T03:29:25;94559.28;;;20.74;100.00
12077;BME280;12420;42.676;23.262;2022-07-06T03:31:52;94593.09;;;20.96;100.00
12077;BME280;12420;42.676;23.262;2022-07-06T03:34:19;94593.94;;;21.08;100.00
12077;BME280;12420;42.676;23.262;2022-07-06T03:36:45;94593.91;;;21.18;100.00
12077;BME280;12420;42.676;23.262;2022-07-06T03:39:13;94591.97;;;21.20;100.00
12077;BME280;12420;42.676;23.262;2022-07-06T03:41:40;94592.97;;;21.25;100.00
12077;BME280;12420;42.676;23.262;2022-07-06T03:44:07;94602.13;;;21.35;100.00
12077;BME280;12420;42.676;23.262;2022-07-06T03:46:34;94602.22;;;21.47;100.00
12077;BME280;12420;42.676;23.262;2022-07-06T03:49:00;94601.94;;;21.43;100.00
12077;BME280;12420;42.676;23.262;2022-07-06T03:51:27;94601.47;;;21.46;100.00
12077;BME280;12420;42.676;23.262;2022-07-06T03:53:54;94604.72;;;21.53;100.00
12077;BME280;12420;42.676;23.262;2022-07-06T03:56:22;94596.88;;;21.51;100.00
12077;BME280;12420;42.676;23.262;2022-07-06T03:58:56;94600.34;;;21.61;100.00
12077;BME280;12420;42.676;23.262;2022-07-06T04:01:23;94609.47;;;21.72;100.00
12077;BME280;12420;42.676;23.262;2022-07-06T04:03:50;94622.56;;;21.67;100.00
12077;BME280;12420;42.676;23.262;2022-07-06T04:06:17;94611.53;;;21.50;100.00
12077;BME280;12420;42.676;23.262;2022-07-06T04:08:43;94589.84;;;21.31;100.00
12077;BME280;12420;42.676;23.262;2022-07-06T04:11:10;94600.16;;;21.48;100.00
12077;BME280;12420;42.676;23.262;2022-07-06T04:13:38;94619.28;;;21.71;100.00
12077;BME280;12420;42.676;23.262;2022-07-06T04:16:06;94616.31;;;21.68;100.00
12077;BME280;12420;42.676;23.262;2022-07-06T04:18:33;94613.97;;;21.65;100.00
12077;BME280;12420;42.676;23.262;2022-07-06T04:21:00;94609.88;;;21.78;100.00
12077;BME280;12420;42.676;23.262;2022-07-06T04:23:27;94624.03;;;21.89;100.00
12077;BME280;12420;42.676;23.262;2022-07-06T04:25:54;94621.97;;;22.11;100.00
12077;BME280;12420;42.676;23.262;2022-07-06T04:28:21;94625.56;;;22.02;100.00
12077;BME280;12420;42.676;23.262;2022-07-06T04:30:49;94630.41;;;21.90;100.00
12077;BME280;12420;42.676;23.262;2022-07-06T04:33:16;94623.44;;;21.70;100.00
12077;BME280;12420;42.676;23.262;2022-07-06T04:35:43;94635.56;;;21.72;100.00
12077;BME280;12420;42.676;23.262;2022-07-06T04:38:10;94631.81;;;21.79;100.00
12077;BME280;12420;42.676;23.262;2022-07-06T04:40:36;94651.81;;;21.83;100.00
12077;BME280;12420;42.676;23.262;2022-07-06T04:43:07;94664.59;;;21.53;100.00
12077;BME280;12420;42.676;23.262;2022-07-06T04:45:40;94666.88;;;20.85;100.00
12077;BME280;12420;42.676;23.262;2022-07-06T04:48:11;94634.38;;;20.13;100.00
12077;BME280;12420;42.676;23.262;2022-07-06T04:50:42;94669.56;;;20.24;100.00
12077;BME280;12420;42.676;23.262;2022-07-06T04:53:09;94684.06;;;20.21;100.00
12077;BME280;12420;42.676;23.262;2022-07-06T04:55:36;94678.41;;;19.91;100.00
12077;BME280;12420;42.676;23.262;2022-07-06T04:58:04;94666.13;;;19.97;100.00
12077;BME280;12420;42.676;23.262;2022-07-06T05:00:34;94673.25;;;19.98;100.00
12077;BME280;12420;42.676;23.262;2022-07-06T05:03:02;94674.16;;;20.10;100.00
12077;BME280;12420;42.676;23.262;2022-07-06T05:05:45;94658.78;;;20.11;100.00
12077;BME280;12420;42.676;23.262;2022-07-06T05:08:20;94675.63;;;20.21;100.00
12077;BME280;12420;42.676;23.262;2022-07-06T05:10:47;94681.41;;;20.42;100.00
12077;BME280;12420;42.676;23.262;2022-07-06T05:13:15;94679.78;;;20.39;100.00
12077;BME280;12420;42.676;23.262;2022-07-06T05:15:42;94688.06;;;20.47;100.00
12077;BME280;12420;42.676;23.262;2022-07-06T05:18:08;94697.38;;;20.49;100.00
12077;BME280;12420;42.676;23.262;2022-07-06T05:20:39;94690.41;;;20.50;100.00
12077;BME280;12420;42.676;23.262;2022-07-06T05:23:08;94700.78;;;20.67;100.00
12077;BME280;12420;42.676;23.262;2022-07-06T05:25:34;94708.47;;;20.86;100.00
12077;BME280;12420;42.676;23.262;2022-07-06T05:28:02;94700.16;;;20.98;100.00
12077;BME280;12420;42.676;23.262;2022-07-06T05:30:29;94695.97;;;21.18;100.00
12077;BME280;12420;42.676;23.262;2022-07-06T05:32:56;94690.31;;;21.18;100.00
12077;BME280;12420;42.676;23.262;2022-07-06T05:35:22;94712.66;;;21.45;100.00
12077;BME280;12420;42.676;23.262;2022-07-06T05:37:49;94702.78;;;21.66;100.00
12077;BME280;12420;42.676;23.262;2022-07-06T05:40:17;94717.34;;;21.84;100.00
12077;BME280;12420;42.676;23.262;2022-07-06T05:42:44;94716.25;;;21.67;100.00
12077;BME280;12420;42.676;23.262;2022-07-06T05:45:11;94710.50;;;21.65;100.00
12077;BME280;12420;42.676;23.262;2022-07-06T05:47:38;94716.81;;;21.76;100.00
12077;BME280;12420;42.676;23.262;2022-07-06T05:50:22;94711.34;;;21.99;100.00
12077;BME280;12420;42.676;23.262;2022-07-06T05:52:56;94686.97;;;21.51;100.00
12077;BME280;12420;42.676;23.262;2022-07-06T05:55:25;94708.03;;;21.50;100.00
12077;BME280;12420;42.676;23.262;2022-07-06T05:57:52;94719.84;;;21.58;100.00
12077;BME280;12420;42.676;23.262;2022-07-06T06:00:21;94727.09;;;21.61;100.00
12077;BME280;12420;42.676;23.262;2022-07-06T06:02:48;94716.34;;;21.48;100.00
12077;BME280;12420;42.676;23.262;2022-07-06T06:05:15;94708.63;;;21.49;100.00
12077;BME280;12420;42.676;23.262;2022-07-06T06:07:43;94710.34;;;21.63;100.00
12077;BME280;12420;42.676;23.262;2022-07-06T06:10:18;94716.88;;;21.56;100.00
12077;BME280;12420;42.676;23.262;2022-07-06T06:12:46;94710.53;;;21.56;100.00
12077;BME280;12420;42.676;23.262;2022-07-06T06:15:13;94715.28;;;21.53;100.00
12077;BME280;12420;42.676;23.262;2022-07-06T06:17:40;94715.44;;;21.55;100.00
12077;BME280;12420;42.676;23.262;2022-07-06T06:20:10;94702.47;;;21.62;100.00
12077;BME280;12420;42.676;23.262;2022-07-06T06:22:48;94684.16;;;21.51;100.00
12077;BME280;12420;42.676;23.262;2022-07-06T06:25:16;94668.34;;;21.36;100.00
12077;BME280;12420;42.676;23.262;2022-07-06T06:27:43;94715.31;;;21.34;100.00
12077;BME280;12420;42.676;23.262;2022-07-06T06:30:12;94712.09;;;21.28;100.00
12077;BME280;12420;42.676;23.262;2022-07-06T06:32:40;94698.06;;;21.08;100.00
12077;BME280;12420;42.676;23.262;2022-07-06T06:35:10;94710.34;;;21.13;100.00
12077;BME280;12420;42.676;23.262;2022-07-06T06:37:37;94704.84;;;21.24;100.00
12077;BME280;12420;42.676;23.262;2022-07-06T06:40:06;94684.44;;;21.14;100.00
12077;BME280;12420;42.676;23.262;2022-07-06T06:42:35;94660.41;;;21.13;100.00
12077;BME280;12420;42.676;23.262;2022-07-06T06:45:03;94698.97;;;21.52;100.00
12077;BME280;12420;42.676;23.262;2022-07-06T06:47:40;94694.81;;;21.84;100.00
12077;BME280;12420;42.676;23.262;2022-07-06T06:50:08;94703.41;;;21.86;100.00
12077;BME280;12420;42.676;23.262;2022-07-06T06:52:34;94682.72;;;21.72;100.00
12077;BME280;12420;42.676;23.262;2022-07-06T06:55:02;94694.91;;;21.96;100.00
12077;BME280;12420;42.676;23.262;2022-07-06T06:57:28;94702.25;;;21.79;100.00
12077;BME280;12420;42.676;23.262;2022-07-06T06:59:55;94693.22;;;21.81;100.00
12077;BME280;12420;42.676;23.262;2022-07-06T07:02:23;94696.66;;;21.70;100.00
12077;BME280;12420;42.676;23.262;2022-07-06T07:04:53;94697.41;;;21.70;100.00
12077;BME280;12420;42.676;23.262;2022-07-06T07:07:20;94693.31;;;21.83;100.00
12077;BME280;12420;42.676;23.262;2022-07-06T07:09:47;94707.66;;;21.65;100.00
12077;BME280;12420;42.676;23.262;2022-07-06T07:12:14;94707.66;;;21.65;100.00
12077;BME280;12420;42.676;23.262;2022-07-06T07:14:42;94702.47;;;21.62;100.00
12077;BME280;12420;42.676;23.262;2022-07-06T07:17:09;94701.00;;;21.61;100.00
12077;BME280;12420;42.676;23.262;2022-07-06T07:19:36;94705.53;;;21.76;100.00
12077;BME280;12420;42.676;23.262;2022-07-06T07:22:04;94699.09;;;21.85;100.00
12077;BME280;12420;42.676;23.262;2022-07-06T07:24:31;94692.78;;;22.06;100.00
12077;BME280;12420;42.676;23.262;2022-07-06T07:26:58;94702.91;;;22.21;100.00
12077;BME280;12420;42.676;23.262;2022-07-06T07:29:25;94702.09;;;22.08;100.00
12077;BME280;12420;42.676;23.262;2022-07-06T07:31:55;94704.97;;;21.99;100.00
12077;BME280;12420;42.676;23.262;2022-07-06T07:34:21;94705.81;;;21.80;100.00
12077;BME280;12420;42.676;23.262;2022-07-06T07:36:49;94707.38;;;21.61;100.00
12077;BME280;12420;42.676;23.262;2022-07-06T07:39:17;94684.34;;;21.75;100.00
12077;BME280;12420;42.676;23.262;2022-07-06T07:41:44;94701.91;;;21.85;100.00
12077;BME280;12420;42.676;23.262;2022-07-06T07:44:11;94675.38;;;21.57;100.00
12077;BME280;12420;42.676;23.262;2022-07-06T07:46:37;94676.88;;;21.58;100.00
12077;BME280;12420;42.676;23.262;2022-07-06T07:49:04;94698.84;;;22.02;100.00
12077;BME280;12420;42.676;23.262;2022-07-06T07:51:31;94693.34;;;22.04;100.00
12077;BME280;12420;42.676;23.262;2022-07-06T07:53:58;94695.16;;;22.00;100.00
12077;BME280;12420;42.676;23.262;2022-07-06T07:56:26;94701.72;;;22.24;100.00
12077;BME280;12420;42.676;23.262;2022-07-06T07:58:53;94688.13;;;22.53;100.00
12077;BME280;12420;42.676;23.262;2022-07-06T08:01:19;94684.56;;;22.86;100.00
12077;BME280;12420;42.676;23.262;2022-07-06T08:03:46;94695.28;;;23.00;100.00
12077;BME280;12420;42.676;23.262;2022-07-06T08:06:13;94656.19;;;22.72;100.00
12077;BME280;12420;42.676;23.262;2022-07-06T08:08:39;94705.31;;;23.24;100.00
12077;BME280;12420;42.676;23.262;2022-07-06T08:11:06;94702.09;;;23.18;100.00
12077;BME280;12420;42.676;23.262;2022-07-06T08:13:36;94694.50;;;23.32;100.00
12077;BME280;12420;42.676;23.262;2022-07-06T08:16:08;94707.56;;;23.61;100.00
12077;BME280;12420;42.676;23.262;2022-07-06T08:18:36;94673.41;;;23.57;100.00
12077;BME280;12420;42.676;23.262;2022-07-06T08:21:03;94703.16;;;23.93;100.00
12077;BME280;12420;42.676;23.262;2022-07-06T08:23:33;94691.09;;;24.04;100.00
12077;BME280;12420;42.676;23.262;2022-07-06T08:26:01;94712.22;;;24.15;100.00
12077;BME280;12420;42.676;23.262;2022-07-06T08:28:28;94704.13;;;23.86;100.00
12077;BME280;12420;42.676;23.262;2022-07-06T08:30:59;94700.91;;;23.68;100.00
12077;BME280;12420;42.676;23.262;2022-07-06T08:33:29;94698.69;;;23.55;100.00
12077;BME280;12420;42.676;23.262;2022-07-06T08:35:56;94702.03;;;23.98;100.00
12077;BME280;12420;42.676;23.262;2022-07-06T08:38:22;94702.91;;;23.89;100.00
12077;BME280;12420;42.676;23.262;2022-07-06T08:40:50;94669.47;;;23.97;100.00
12077;BME280;12420;42.676;23.262;2022-07-06T08:43:17;94703.34;;;24.21;100.00
12077;BME280;12420;42.676;23.262;2022-07-06T08:45:45;94699.78;;;24.20;100.00
12077;BME280;12420;42.676;23.262;2022-07-06T08:48:14;94693.94;;;24.04;100.00
12077;BME280;12420;42.676;23.262;2022-07-06T08:50:44;94703.28;;;23.83;100.00
12077;BME280;12420;42.676;23.262;2022-07-06T08:53:24;94710.38;;;23.96;100.00
12077;BME280;12420;42.676;23.262;2022-07-06T08:55:51;94703.25;;;24.07;100.00
12077;BME280;12420;42.676;23.262;2022-07-06T08:58:19;94712.94;;;24.27;100.00
12077;BME280;12420;42.676;23.262;2022-07-06T09:00:47;94695.78;;;24.61;100.00
12077;BME280;12420;42.676;23.262;2022-07-06T09:03:16;94695.56;;;24.82;100.00
12077;BME280;12420;42.676;23.262;2022-07-06T09:05:45;94711.09;;;24.69;100.00
12077;BME280;12420;42.676;23.262;2022-07-06T09:08:12;94712.13;;;24.62;100.00
12077;BME280;12420;42.676;23.262;2022-07-06T09:10:39;94715.13;;;24.41;100.00
12077;BME280;12420;42.676;23.262;2022-07-06T09:13:08;94705.66;;;24.48;100.00
12077;BME280;12420;42.676;23.262;2022-07-06T09:15:36;94704.88;;;24.85;100.00
12077;BME280;12420;42.676;23.262;2022-07-06T09:18:05;94702.00;;;24.71;100.00
12077;BME280;12420;42.676;23.262;2022-07-06T09:20:34;94699.78;;;24.69;100.00
12077;BME280;12420;42.676;23.262;2022-07-06T09:23:02;94703.22;;;24.31;100.00
12077;BME280;12420;42.676;23.262;2022-07-06T09:25:30;94696.50;;;24.00;100.00
12077;BME280;12420;42.676;23.262;2022-07-06T09:27:58;94705.97;;;24.05;100.00
12077;BME280;12420;42.676;23.262;2022-07-06T09:30:26;94703.50;;;24.11;100.00
12077;BME280;12420;42.676;23.262;2022-07-06T09:32:54;94702.09;;;24.36;100.00
12077;BME280;12420;42.676;23.262;2022-07-06T09:35:23;94694.56;;;24.52;100.00
12077;BME280;12420;42.676;23.262;2022-07-06T09:38:02;94679.44;;;23.87;100.00
12077;BME280;12420;42.676;23.262;2022-07-06T09:40:30;94707.06;;;23.88;100.00
12077;BME280;12420;42.676;23.262;2022-07-06T09:43:08;94643.56;;;23.54;100.00
12077;BME280;12420;42.676;23.262;2022-07-06T09:45:35;94697.72;;;24.09;100.00
12077;BME280;12420;42.676;23.262;2022-07-06T09:48:07;94697.47;;;24.05;100.00
12077;BME280;12420;42.676;23.262;2022-07-06T09:50:45;94677.28;;;24.22;100.00
12077;BME280;12420;42.676;23.262;2022-07-06T09:53:15;94697.19;;;24.24;100.00
12077;BME280;12420;42.676;23.262;2022-07-06T09:55:46;94683.41;;;24.31;100.00
12077;BME280;12420;42.676;23.262;2022-07-06T09:58:13;94675.19;;;24.23;100.00
12077;BME280;12420;42.676;23.262;2022-07-06T10:00:40;94682.69;;;24.18;100.00
12077;BME280;12420;42.676;23.262;2022-07-06T10:03:07;94687.47;;;24.27;100.00
12077;BME280;12420;42.676;23.262;2022-07-06T10:05:36;94681.97;;;24.18;100.00
12077;BME280;12420;42.676;23.262;2022-07-06T10:08:05;94667.19;;;24.31;100.00
12077;BME280;12420;42.676;23.262;2022-07-06T10:10:37;94698.88;;;24.53;100.00
12077;BME280;12420;42.676;23.262;2022-07-06T10:13:04;94655.59;;;24.39;100.00
12077;BME280;12420;42.676;23.262;2022-07-06T10:15:33;94667.16;;;24.43;100.00
12077;BME280;12420;42.676;23.262;2022-07-06T10:18:02;94690.03;;;24.47;100.00
12077;BME280;12420;42.676;23.262;2022-07-06T10:20:32;94685.66;;;24.09;100.00
12077;BME280;12420;42.676;23.262;2022-07-06T10:23:03;94634.16;;;24.10;100.00
12077;BME280;12420;42.676;23.262;2022-07-06T10:25:31;94672.81;;;24.43;100.00
12077;BME280;12420;42.676;23.262;2022-07-06T10:28:00;94678.94;;;24.51;100.00
12077;BME280;12420;42.676;23.262;2022-07-06T10:30:27;94671.44;;;24.81;100.00
12077;BME280;12420;42.676;23.262;2022-07-06T10:32:56;94662.44;;;24.59;100.00
12077;BME280;12420;42.676;23.262;2022-07-06T10:35:25;94665.97;;;24.60;100.00
12077;BME280;12420;42.676;23.262;2022-07-06T10:38:06;94669.94;;;24.55;100.00
12077;BME280;12420;42.676;23.262;2022-07-06T10:40:35;94673.91;;;24.50;100.00
12077;BME280;12420;42.676;23.262;2022-07-06T10:43:20;94665.94;;;24.72;100.00
12077;BME280;12420;42.676;23.262;2022-07-06T10:45:53;94648.97;;;24.72;100.00
12077;BME280;12420;42.676;23.262;2022-07-06T10:48:20;94656.72;;;24.71;100.00
12077;BME280;12420;42.676;23.262;2022-07-06T10:50:50;94651.91;;;24.48;100.00
12077;BME280;12420;42.676;23.262;2022-07-06T10:53:21;94674.44;;;24.72;100.00
12077;BME280;12420;42.676;23.262;2022-07-06T10:55:50;94658.88;;;24.59;100.00
12077;BME280;12420;42.676;23.262;2022-07-06T10:58:46;94636.75;;;24.43;100.00
12077;BME280;12420;42.676;23.262;2022-07-06T11:01:16;94673.34;;;24.90;100.00
12077;BME280;12420;42.676;23.262;2022-07-06T11:03:45;94667.63;;;25.02;100.00
12077;BME280;12420;42.676;23.262;2022-07-06T11:06:18;94664.56;;;25.24;100.00
12077;BME280;12420;42.676;23.262;2022-07-06T11:08:53;94658.28;;;25.25;100.00
12077;BME280;12420;42.676;23.262;2022-07-06T11:11:23;94663.63;;;25.33;100.00
12077;BME280;12420;42.676;23.262;2022-07-06T11:13:57;94663.66;;;25.07;100.00
12077;BME280;12420;42.676;23.262;2022-07-06T11:16:27;94660.94;;;25.09;100.00
12077;BME280;12420;42.676;23.262;2022-07-06T11:19:03;94659.97;;;25.05;100.00
12077;BME280;12420;42.676;23.262;2022-07-06T11:21:39;94653.53;;;25.16;100.00
12077;BME280;12420;42.676;23.262;2022-07-06T11:24:08;94624.72;;;24.94;100.00
12077;BME280;12420;42.676;23.262;2022-07-06T11:26:36;94665.84;;;25.34;100.00
12077;BME280;12420;42.676;23.262;2022-07-06T11:29:06;94659.94;;;25.17;100.00
12077;BME280;12420;42.676;23.262;2022-07-06T11:31:34;94650.69;;;24.90;100.00
12077;BME280;12420;42.676;23.262;2022-07-06T11:34:02;94653.38;;;24.75;100.00
12077;BME280;12420;42.676;23.262;2022-07-06T11:36:29;94645.81;;;25.05;100.00
12077;BME280;12420;42.676;23.262;2022-07-06T11:38:56;94651.78;;;24.97;100.00
12077;BME280;12420;42.676;23.262;2022-07-06T11:41:23;94635.63;;;25.00;100.00
12077;BME280;12420;42.676;23.262;2022-07-06T11:43:50;94644.91;;;25.14;100.00
12077;BME280;12420;42.676;23.262;2022-07-06T11:46:21;94612.13;;;24.97;100.00
12077;BME280;12420;42.676;23.262;2022-07-06T11:48:48;94628.00;;;25.42;100.00
12077;BME280;12420;42.676;23.262;2022-07-06T11:51:16;94628.31;;;25.34;100.00
12077;BME280;12420;42.676;23.262;2022-07-06T11:53:44;94631.22;;;25.36;100.00
12077;BME280;12420;42.676;23.262;2022-07-06T11:56:12;94629.22;;;25.39;100.00
12077;BME280;12420;42.676;23.262;2022-07-06T11:58:39;94627.25;;;25.41;95.55
12077;BME280;12420;42.676;23.262;2022-07-06T12:01:09;94620.13;;;25.40;93.08
12077;BME280;12420;42.676;23.262;2022-07-06T12:03:38;94628.28;;;25.62;92.86
12077;BME280;12420;42.676;23.262;2022-07-06T12:06:16;94614.56;;;25.70;91.90
12077;BME280;12420;42.676;23.262;2022-07-06T12:08:45;94604.91;;;25.89;92.01
12077;BME280;12420;42.676;23.262;2022-07-06T12:11:19;94625.50;;;25.89;86.41
12077;BME280;12420;42.676;23.262;2022-07-06T12:13:47;94615.56;;;26.18;85.69
12077;BME280;12420;42.676;23.262;2022-07-06T12:16:14;94576.88;;;25.53;85.21
12077;BME280;12420;42.676;23.262;2022-07-06T12:18:44;94592.28;;;25.78;86.54
12077;BME280;12420;42.676;23.262;2022-07-06T12:21:13;94594.59;;;25.82;89.05
12077;BME280;12420;42.676;23.262;2022-07-06T12:23:44;94624.41;;;26.10;87.75
12077;BME280;12420;42.676;23.262;2022-07-06T12:26:12;94623.19;;;25.86;87.00
12077;BME280;12420;42.676;23.262;2022-07-06T12:28:39;94626.63;;;25.70;87.13
12077;BME280;12420;42.676;23.262;2022-07-06T12:31:08;94622.63;;;25.48;88.41
12077;BME280;12420;42.676;23.262;2022-07-06T12:33:35;94623.13;;;25.30;88.36
12077;BME280;12420;42.676;23.262;2022-07-06T12:36:19;94623.00;;;25.15;90.67
12077;BME280;12420;42.676;23.262;2022-07-06T12:38:53;94621.88;;;25.20;87.21
12077;BME280;12420;42.676;23.262;2022-07-06T12:41:28;94616.00;;;25.29;88.05
12077;BME280;12420;42.676;23.262;2022-07-06T12:44:04;94605.84;;;25.66;82.31
12077;BME280;12420;42.676;23.262;2022-07-06T12:46:33;94602.06;;;25.75;82.76